Wentworth, SD (57075)

9:03 AM CST on March 02, 2015 (GMT -0600)
Madison Municipal | Change Station
CLOSE
Current Station
Airport
Location: Madison,
Elevation: 1716 ft
Nearby Weather Stations
Active Advisory: Blizzard Watch

Elev 1716 ft 44.01 °N, 97.08 °W | Updated 13 minutes ago

Clear
Clear
10 °F
Feels Like -2 °F
N
8
Wind Variable Wind from SSE

Today
High -- | Low -- °F
--% Chance of Precip.
Yesterday
High -- | Low -- °F
Precip. -- in
7:03 AM 6:17 PM
Waxing Gibbous, 91% visible
Pressure 30.37 in
Visibility 10.0 miles
Clouds Clear
Windchill -2 °F
Dew Point 10 °F
Humidity 100%
Rainfall 0.00 in
Snow Depth Not available.
UV 1 out of 12
Pollen .40 out of 12
Air Quality Not available.
Flu Activity Not available.
METAR KMDS 021450Z AUTO 16007KT 10SM CLR M12/M12 A3037 RMK AO2

More Conditions Fewer Conditions

Pressure 30.37 in
Visibility 10.0 miles
Clouds Clear
Windchill -2 °F
Dew Point 10 °F
Humidity 100%
Rainfall 0.00 in
Snow Depth Not available.
UV 1 out of 12
Pollen .40 out of 12
Air Quality Not available.
Flu Activity Not available.
METAR KMDS 021450Z AUTO 16007KT 10SM CLR M12/M12 A3037 RMK AO2

More Conditions Fewer Conditions

10-Day Weather Forecast

Almanac

Astronomy

Mar. 02, 2015 Rise Set
Actual Time
Civil Twilight
Nautical Twilight
Astronomical Twilight
Moon
Length of Visible Light
Length of Day
Tomorrow will be .
, % of the Moon is Illuminated

Today's Extremes

State Highs State Lows

Community

WunderPhotos

Upload Photos

1,801,798 photos uploaded!

WunderBlogs® & News

Nearby

Air Quality

  Air Quality AQ Index Pollutant
Not available.

Snow Depth

Station Depth Elevation

Earthquake Activity

City Distance Mag. Time & Date
Minimum magnitude displayed is 2.5.

Coastal Water Temperatures

Place Temperature

Nearby Weather Stations

Blizzard Watch
Statement as of 4:31 AM CST on March 02, 2015

... Blizzard watch remains in effect from Tuesday morning through
Tuesday afternoon...

* timing... worst conditions from early Tuesday through mid
afternoon Tuesday.

* Accumulations... 2 to 5 inches of snow possible... with the
highest amounts north of Interstate 90.

* Wind and visibility... north to northwest winds of 30 to 45 mph
will be common... with some gusts around 50 mph possible. If
these winds materialize coupled with falling snow... visibility
reductions of less than a quarter mile could occur. After the
falling snow ends... the visibility will greatly increase.

Precautionary/preparedness actions...

A blizzard watch means there is a potential for falling and/or
blowing snow with strong winds and extremely poor visibilities.
This can lead to whiteout conditions and make travel very
dangerous.